createdAt,value
2023-02-11T00:00:21.753Z,93473.97
2023-02-11T00:02:54.846Z,93459.97
2023-02-11T00:05:27.319Z,93467.59
2023-02-11T00:07:59.850Z,93471.72
2023-02-11T00:10:32.197Z,93467.31
2023-02-11T00:13:04.659Z,93469.84
2023-02-11T00:15:37.134Z,93467.97
2023-02-11T00:18:10.226Z,93473.41
2023-02-11T00:20:42.953Z,93475.28
2023-02-11T00:23:15.742Z,93479.41
2023-02-11T00:25:48.143Z,93476.91
2023-02-11T00:28:20.543Z,93473.91
2023-02-11T00:30:55.245Z,93483.19
2023-02-11T00:33:28.570Z,93483.19
2023-02-11T00:36:04.219Z,93471.59
2023-02-11T00:38:36.574Z,93487.16
2023-02-11T00:41:08.982Z,93474.28
2023-02-11T00:43:41.861Z,93467.06
2023-02-11T00:46:14.578Z,93459.41
2023-02-11T00:48:48.393Z,93461.16
2023-02-11T00:51:20.862Z,93460.53
2023-02-11T00:53:53.742Z,93456.53
2023-02-11T00:56:26.464Z,93453.69
2023-02-11T00:58:58.855Z,93458.94
2023-02-11T01:01:31.319Z,93454.50
2023-02-11T01:04:04.749Z,93456.72
2023-02-11T01:06:37.132Z,93453.34
2023-02-11T01:09:11.183Z,93450.97
2023-02-11T01:11:43.674Z,93452.22
2023-02-11T01:14:17.358Z,93461.94
2023-02-11T01:16:49.725Z,93457.03
2023-02-11T01:19:22.926Z,93450.63
2023-02-11T01:21:55.288Z,93447.47
2023-02-11T01:24:27.971Z,93442.69
2023-02-11T01:27:00.419Z,93447.50
2023-02-11T01:29:32.837Z,93447.94
2023-02-11T01:32:05.294Z,93443.81
2023-02-11T01:34:38.464Z,93445.72
2023-02-11T01:37:11.098Z,93438.56
2023-02-11T01:39:43.501Z,93440.31
2023-02-11T01:42:20.853Z,93441.09
2023-02-11T01:44:55.156Z,93431.53
2023-02-11T01:47:27.575Z,93436.63
2023-02-11T01:50:01.877Z,93427.41
2023-02-11T01:52:39.035Z,93435.56
2023-02-11T01:55:32.133Z,93433.94
2023-02-11T01:58:05.425Z,93433.94
2023-02-11T02:00:40.985Z,93426.66
2023-02-11T02:03:18.824Z,93431.25
2023-02-11T02:05:55.286Z,93431.41
2023-02-11T02:08:31.501Z,93424.78
2023-02-11T02:11:04.356Z,93425.56
2023-02-11T02:13:36.974Z,93430.66
2023-02-11T02:16:13.803Z,93439.72
2023-02-11T02:18:56.005Z,93430.66
2023-02-11T02:22:13.552Z,93434.31
2023-02-11T02:25:00.284Z,93440.50
2023-02-11T02:27:54.718Z,93432.59
2023-02-11T02:30:49.319Z,93418.59
2023-02-11T02:33:37.103Z,93438.13
2023-02-11T02:36:18.037Z,93437.47
2023-02-11T02:38:55.759Z,93437.31
2023-02-11T02:41:31.089Z,93435.09
2023-02-11T02:44:04.379Z,93423.03
2023-02-11T02:46:37.330Z,93438.25
2023-02-11T02:49:12.841Z,93428.06
2023-02-11T02:52:23.423Z,93426.81
2023-02-11T02:55:22.680Z,93435.34
2023-02-11T02:58:08.938Z,93422.16
2023-02-11T03:00:50.626Z,93431.38
2023-02-11T03:03:32.556Z,93427.84
2023-02-11T03:06:12.121Z,93427.72
2023-02-11T03:08:49.112Z,93420.09
2023-02-11T03:11:23.983Z,93425.91
2023-02-11T03:13:58.124Z,93419.56
2023-02-11T03:16:35.340Z,93421.28
2023-02-11T03:19:12.304Z,93428.22
2023-02-11T03:21:47.204Z,93424.44
2023-02-11T03:24:25.709Z,93427.94
2023-02-11T03:27:03.417Z,93426.97
2023-02-11T03:29:43.442Z,93425.59
2023-02-11T03:32:22.792Z,93427.66
2023-02-11T03:34:59.880Z,93424.03
2023-02-11T03:37:36.699Z,93431.00
2023-02-11T03:40:13.388Z,93425.78
2023-02-11T03:42:51.105Z,93422.63
2023-02-11T03:45:25.348Z,93429.44
2023-02-11T03:48:01.455Z,93428.16
2023-02-11T03:50:35.939Z,93425.28
2023-02-11T03:53:09.918Z,93424.16
2023-02-11T03:55:43.846Z,93418.63
2023-02-11T03:58:16.691Z,93413.22
2023-02-11T04:00:49.114Z,93419.91
2023-02-11T04:03:21.632Z,93422.25
2023-02-11T04:05:54.133Z,93416.53
2023-02-11T04:08:27.429Z,93409.69
2023-02-11T04:10:59.752Z,93415.38
2023-02-11T04:13:32.146Z,93416.59
2023-02-11T04:16:04.811Z,93409.25
2023-02-11T04:18:37.607Z,93412.28
2023-02-11T04:21:09.960Z,93416.41
2023-02-11T04:23:43.196Z,93413.41
2023-02-11T04:26:15.501Z,93409.00
2023-02-11T04:28:48.228Z,93414.22
2023-02-11T04:31:20.701Z,93406.13
2023-02-11T04:33:53.188Z,93411.56
2023-02-11T04:36:25.542Z,93413.88
2023-02-11T04:38:58.603Z,93407.88
2023-02-11T04:41:31.068Z,93396.53
2023-02-11T04:44:04.146Z,93400.66
2023-02-11T04:46:36.614Z,93401.34
2023-02-11T04:49:12.390Z,93392.78
2023-02-11T04:51:46.999Z,93398.69
2023-02-11T04:54:22.041Z,93395.34
2023-02-11T04:56:54.460Z,93405.81
2023-02-11T04:59:27.094Z,93405.19
2023-02-11T05:01:59.496Z,93390.44
2023-02-11T05:04:32.125Z,93395.88
2023-02-11T05:07:04.635Z,93397.44
2023-02-11T05:09:37.696Z,93394.91
2023-02-11T05:12:10.118Z,93391.44
2023-02-11T05:14:42.520Z,93382.41
2023-02-11T05:17:14.945Z,93383.75
2023-02-11T05:19:47.324Z,93378.22
2023-02-11T05:22:21.240Z,93378.22
2023-02-11T05:24:54.207Z,93388.06
2023-02-11T05:27:26.627Z,93380.91
2023-02-11T05:29:59.388Z,93395.94
2023-02-11T05:32:32.373Z,93383.09
2023-02-11T05:35:05.391Z,93386.56
2023-02-11T05:37:38.321Z,93378.66
2023-02-11T05:40:11.853Z,93373.25
2023-02-11T05:42:44.359Z,93379.81
2023-02-11T05:45:16.877Z,93387.34
2023-02-11T05:47:49.442Z,93382.78
2023-02-11T05:50:21.752Z,93384.31
2023-02-11T05:52:57.682Z,93384.19
2023-02-11T05:55:31.125Z,93369.50
2023-02-11T05:58:03.969Z,93387.78
2023-02-11T06:00:36.750Z,93389.38
2023-02-11T06:03:09.189Z,93384.94
2023-02-11T06:05:42.874Z,93361.81
2023-02-11T06:08:16.039Z,93391.69
2023-02-11T06:10:49.047Z,93392.97
2023-02-11T06:13:21.491Z,93394.25
2023-02-11T06:15:57.892Z,93398.69
2023-02-11T06:18:31.517Z,93393.97
2023-02-11T06:21:07.526Z,93394.81
2023-02-11T06:23:40.054Z,93398.56
2023-02-11T06:26:18.520Z,93391.94
2023-02-11T06:28:51.112Z,93398.88
2023-02-11T06:31:23.808Z,93395.56
2023-02-11T06:33:56.287Z,93393.16
2023-02-11T06:36:28.687Z,93387.66
2023-02-11T06:39:01.956Z,93384.69
2023-02-11T06:41:34.981Z,93393.38
2023-02-11T06:44:07.464Z,93393.84
2023-02-11T06:46:39.857Z,93401.50
2023-02-11T06:49:12.782Z,93395.81
2023-02-11T06:51:45.161Z,93403.00
2023-02-11T06:54:17.771Z,93400.97
2023-02-11T06:56:50.814Z,93394.22
2023-02-11T06:59:23.340Z,93401.69
2023-02-11T07:01:55.773Z,93399.22
2023-02-11T07:04:28.429Z,93401.94
2023-02-11T07:07:01.002Z,93400.66
2023-02-11T07:09:33.697Z,93397.84
2023-02-11T07:12:09.021Z,93399.97
2023-02-11T07:14:41.502Z,93398.88
2023-02-11T07:17:13.895Z,93399.88
2023-02-11T07:19:46.327Z,93393.19
2023-02-11T07:22:18.782Z,93394.78
2023-02-11T07:24:51.206Z,93392.72
2023-02-11T07:27:24.273Z,93386.38
2023-02-11T07:29:56.788Z,93386.22
2023-02-11T07:32:29.408Z,93386.81
2023-02-11T07:35:01.970Z,93385.00
2023-02-11T07:37:34.780Z,93378.78
2023-02-11T07:40:08.065Z,93376.22
2023-02-11T07:42:41.093Z,93366.13
2023-02-11T07:45:13.536Z,93373.66
2023-02-11T07:47:45.941Z,93365.34
2023-02-11T07:50:18.477Z,93368.78
2023-02-11T07:52:50.990Z,93366.44
2023-02-11T07:55:23.389Z,93363.97
2023-02-11T07:57:56.414Z,93359.00
2023-02-11T08:00:28.855Z,93361.09
2023-02-11T08:03:01.358Z,93360.34
2023-02-11T08:05:33.871Z,93363.31
2023-02-11T08:08:06.329Z,93365.34
2023-02-11T08:10:38.694Z,93363.56
2023-02-11T08:13:11.869Z,93361.94
2023-02-11T08:15:45.199Z,93345.91
2023-02-11T08:18:17.578Z,93358.84
2023-02-11T08:20:50.241Z,93359.91
2023-02-11T08:23:22.739Z,93366.34
2023-02-11T08:25:55.094Z,93356.16
2023-02-11T08:28:28.080Z,93361.06
2023-02-11T08:31:05.644Z,93360.88
2023-02-11T08:33:40.279Z,93357.97
2023-02-11T08:36:15.149Z,93369.06
2023-02-11T08:38:47.791Z,93357.88
2023-02-11T08:41:20.212Z,93365.09
2023-02-11T08:43:53.229Z,93363.22
2023-02-11T08:46:26.320Z,93347.25
2023-02-11T08:48:58.787Z,93364.38
2023-02-11T08:51:31.729Z,93371.00
2023-02-11T08:54:05.452Z,93362.59
2023-02-11T08:56:41.013Z,93364.41
2023-02-11T08:59:14.630Z,93361.97
2023-02-11T09:01:47.335Z,93372.53
2023-02-11T09:04:19.732Z,93372.69
2023-02-11T09:06:52.153Z,93368.16
2023-02-11T09:09:24.507Z,93369.16
2023-02-11T09:11:56.966Z,93358.38
2023-02-11T09:14:29.981Z,93361.47
2023-02-11T09:17:02.488Z,93358.78
2023-02-11T09:19:35.079Z,93361.06
2023-02-11T09:22:07.780Z,93361.53
2023-02-11T09:24:40.166Z,93352.78
2023-02-11T09:27:12.649Z,93353.16
2023-02-11T09:29:45.695Z,93346.94
2023-02-11T09:32:18.179Z,93349.50
2023-02-11T09:34:50.913Z,93352.06
2023-02-11T09:37:23.355Z,93351.06
2023-02-11T09:39:55.630Z,93337.69
2023-02-11T09:42:42.816Z,93346.13
2023-02-11T09:45:19.498Z,93343.88
2023-02-11T09:47:56.562Z,93339.56
2023-02-11T09:50:32.195Z,93328.88
2023-02-11T09:53:11.463Z,93327.13
2023-02-11T09:55:46.572Z,93322.47
2023-02-11T09:58:25.465Z,93321.09
2023-02-11T10:01:06.323Z,93313.84
2023-02-11T10:03:54.707Z,93298.66
2023-02-11T10:06:40.344Z,93301.03
2023-02-11T10:09:36.814Z,93302.59
2023-02-11T10:12:27.143Z,93298.50
2023-02-11T10:15:17.455Z,93290.03
2023-02-11T10:18:12.795Z,93290.81
2023-02-11T10:20:57.268Z,93289.25
2023-02-11T10:23:34.133Z,93279.41
2023-02-11T10:26:12.990Z,93272.09
2023-02-11T10:28:47.755Z,93265.38
2023-02-11T10:31:24.923Z,93253.13
2023-02-11T10:34:02.469Z,93252.53
2023-02-11T10:36:37.301Z,93247.97
2023-02-11T10:39:15.457Z,93234.84
2023-02-11T10:41:52.911Z,93233.78
2023-02-11T10:44:30.084Z,93220.84
2023-02-11T10:47:09.073Z,93216.78
2023-02-11T10:49:43.784Z,93210.63
2023-02-11T10:52:21.373Z,93202.44
2023-02-11T10:54:59.638Z,93206.91
2023-02-11T10:57:36.031Z,93207.97
2023-02-11T11:00:26.739Z,93205.03
2023-02-11T11:03:02.321Z,93195.41
2023-02-11T11:05:44.317Z,93196.78
2023-02-11T11:08:17.867Z,93200.13
2023-02-11T11:11:04.626Z,93192.84
2023-02-11T11:13:38.436Z,93184.00
2023-02-11T11:16:20.824Z,93189.13
2023-02-11T11:19:14.261Z,93182.59
2023-02-11T11:21:49.087Z,93189.47
2023-02-11T11:24:26.827Z,93187.22
2023-02-11T11:27:02.786Z,93179.94
2023-02-11T11:29:39.206Z,93181.88
2023-02-11T11:32:15.263Z,93182.53
2023-02-11T11:34:51.100Z,93186.88
2023-02-11T11:37:27.180Z,93177.94
2023-02-11T11:40:03.229Z,93178.00
2023-02-11T11:42:38.096Z,93171.88
2023-02-11T11:45:24.042Z,93163.69
2023-02-11T11:48:00.225Z,93172.00
2023-02-11T11:50:36.631Z,93169.22
2023-02-11T11:53:16.060Z,93173.38
2023-02-11T11:55:58.626Z,93165.09
2023-02-11T11:58:32.629Z,93160.50
2023-02-11T12:01:23.492Z,93149.81
2023-02-11T12:04:20.059Z,93148.06
2023-02-11T12:07:02.109Z,93143.84
2023-02-11T12:09:43.573Z,93141.72
2023-02-11T12:12:26.597Z,93144.28
2023-02-11T12:15:13.343Z,93138.50
2023-02-11T12:17:57.044Z,93130.09
2023-02-11T12:20:45.825Z,93133.47
2023-02-11T12:23:35.861Z,93133.16
2023-02-11T12:26:15.593Z,93120.41
2023-02-11T12:28:59.111Z,93112.94
2023-02-11T12:31:46.326Z,93116.72
2023-02-11T12:34:35.731Z,93110.63
2023-02-11T12:37:18.917Z,93096.25
2023-02-11T12:39:58.331Z,93106.19
2023-02-11T12:43:07.108Z,93107.88
2023-02-11T12:45:53.429Z,93097.53
2023-02-11T12:48:39.507Z,93101.47
2023-02-11T12:51:24.924Z,93094.69
2023-02-11T12:54:15.667Z,93099.00
2023-02-11T12:56:54.137Z,93088.84
2023-02-11T12:59:38.116Z,93090.06
2023-02-11T13:02:26.274Z,93088.91
2023-02-11T13:05:04.140Z,93085.44
2023-02-11T13:07:41.482Z,93085.38
2023-02-11T13:10:25.241Z,93090.03
2023-02-11T13:13:16.685Z,93068.88
2023-02-11T13:15:54.613Z,93077.50
2023-02-11T13:18:36.527Z,93070.44
2023-02-11T13:21:26.262Z,93058.31
2023-02-11T13:24:08.024Z,93065.84
2023-02-11T13:26:45.654Z,93056.13
2023-02-11T13:29:33.357Z,93060.19
2023-02-11T13:32:09.128Z,93063.16
2023-02-11T13:34:56.459Z,93067.97
2023-02-11T13:37:35.940Z,93066.16
2023-02-11T13:40:21.488Z,93071.16
2023-02-11T13:42:56.175Z,93062.53
2023-02-11T13:45:31.412Z,93060.41
2023-02-11T13:48:07.553Z,93062.53
2023-02-11T13:50:46.714Z,93059.47
2023-02-11T13:53:20.058Z,93056.25
2023-02-11T13:56:05.435Z,93054.66
2023-02-11T13:58:48.255Z,93048.56
2023-02-11T14:01:41.292Z,93039.41
2023-02-11T14:04:43.753Z,93048.81
2023-02-11T14:07:45.889Z,93042.94
2023-02-11T14:10:54.686Z,93046.66
2023-02-11T14:13:33.037Z,93034.91
2023-02-11T14:16:08.971Z,93039.09
2023-02-11T14:19:02.333Z,93041.66
2023-02-11T14:21:37.858Z,93042.22
2023-02-11T14:24:43.794Z,93043.91
2023-02-11T14:27:23.309Z,93038.59
2023-02-11T14:30:22.014Z,93033.53
2023-02-11T14:33:11.265Z,93040.28
2023-02-11T14:35:57.322Z,93046.66
2023-02-11T14:38:45.612Z,93042.06
2023-02-11T14:41:22.672Z,93035.44
2023-02-11T14:43:58.259Z,93042.06
2023-02-11T14:46:33.081Z,93055.72
2023-02-11T14:49:05.980Z,93045.94
2023-02-11T14:51:40.498Z,93048.81
2023-02-11T14:54:21.944Z,93036.75
2023-02-11T14:57:06.564Z,93043.19
2023-02-11T14:59:39.764Z,93050.16
2023-02-11T15:02:21.776Z,93044.53
2023-02-11T15:04:54.850Z,93031.81
2023-02-11T15:07:27.382Z,93039.50
2023-02-11T15:10:00.469Z,93039.72
2023-02-11T15:12:34.892Z,93033.47
2023-02-11T15:15:13.926Z,93027.97
2023-02-11T15:17:46.840Z,93026.09
2023-02-11T15:20:24.469Z,93014.13
2023-02-11T15:22:59.505Z,93021.78
2023-02-11T15:25:34.294Z,93016.31
2023-02-11T15:28:21.462Z,93014.59
2023-02-11T15:30:59.840Z,93012.69
2023-02-11T15:33:33.035Z,92995.38
2023-02-11T15:36:06.518Z,93010.56
2023-02-11T15:38:39.745Z,93011.94
2023-02-11T15:41:35.294Z,93011.75
2023-02-11T15:44:27.197Z,93007.31
2023-02-11T15:47:00.152Z,93000.31
2023-02-11T15:49:32.992Z,93015.13
2023-02-11T15:52:08.014Z,93011.00
2023-02-11T15:54:45.800Z,93016.72
2023-02-11T15:57:21.366Z,93016.63
2023-02-11T15:59:55.596Z,93009.81
2023-02-11T16:02:31.986Z,93011.28
2023-02-11T16:05:07.339Z,93016.19
2023-02-11T16:07:43.030Z,93017.53
2023-02-11T16:10:25.457Z,93018.03
2023-02-11T16:13:16.705Z,93021.47
2023-02-11T16:15:56.009Z,93022.97
2023-02-11T16:18:38.344Z,93025.84
2023-02-11T16:21:16.371Z,93025.34
2023-02-11T16:23:51.419Z,93027.44
2023-02-11T16:26:28.792Z,93024.16
2023-02-11T16:29:12.511Z,93024.47
2023-02-11T16:31:47.741Z,93034.59
2023-02-11T16:34:22.456Z,93035.88
2023-02-11T16:36:54.912Z,93033.03
2023-02-11T16:39:27.273Z,93035.81
2023-02-11T16:41:59.981Z,93038.09
2023-02-11T16:44:34.181Z,93042.94
2023-02-11T16:47:23.389Z,93047.16
2023-02-11T16:49:56.520Z,93036.41
2023-02-11T16:52:30.797Z,93044.75
2023-02-11T16:55:04.456Z,93043.78
2023-02-11T16:57:36.820Z,93047.47
2023-02-11T17:00:15.343Z,93052.44
2023-02-11T17:02:47.859Z,93050.53
2023-02-11T17:05:22.608Z,93048.44
2023-02-11T17:07:54.944Z,93047.22
2023-02-11T17:10:28.134Z,93060.84
2023-02-11T17:13:01.111Z,93049.84
2023-02-11T17:15:34.409Z,93023.69
2023-02-11T17:18:06.732Z,93044.38
2023-02-11T17:20:39.243Z,93046.13
2023-02-11T17:23:11.674Z,93043.03
2023-02-11T17:25:44.077Z,93042.69
2023-02-11T17:28:16.461Z,93040.94
2023-02-11T17:30:49.621Z,93043.88
2023-02-11T17:33:22.376Z,93050.97
2023-02-11T17:35:55.070Z,93060.09
2023-02-11T17:38:27.606Z,93058.72
2023-02-11T17:41:01.420Z,93067.66
2023-02-11T17:43:33.889Z,93065.28
2023-02-11T17:46:08.204Z,93071.00
2023-02-11T17:48:40.677Z,93065.94
2023-02-11T17:51:24.642Z,93063.94
2023-02-11T17:53:58.107Z,93059.81
2023-02-11T17:56:32.767Z,93059.44
2023-02-11T17:59:07.653Z,93053.13
2023-02-11T18:01:42.290Z,93067.34
2023-02-11T18:04:17.049Z,93070.47
2023-02-11T18:06:49.601Z,93058.06
2023-02-11T18:09:21.960Z,93088.59
2023-02-11T18:11:54.632Z,93092.69
2023-02-11T18:14:26.958Z,93082.28
2023-02-11T18:17:00.143Z,93077.72
2023-02-11T18:19:35.194Z,93069.69
2023-02-11T18:22:09.042Z,93072.22
2023-02-11T18:24:41.403Z,93063.59
2023-02-11T18:27:13.966Z,93066.34
2023-02-11T18:29:46.348Z,93063.38
2023-02-11T18:32:19.515Z,93070.47
2023-02-11T18:34:51.868Z,93063.97
2023-02-11T18:37:24.725Z,93048.22
2023-02-11T18:39:57.024Z,93055.50
2023-02-11T18:42:29.403Z,93047.81
2023-02-11T18:45:02.169Z,93055.91
2023-02-11T18:47:36.940Z,93036.81
2023-02-11T18:50:12.987Z,93043.09
2023-02-11T18:52:45.429Z,93035.44
2023-02-11T18:55:22.544Z,93037.38
2023-02-11T18:57:55.900Z,93037.41
2023-02-11T19:00:28.260Z,93024.00
2023-02-11T19:03:01.440Z,93034.06
2023-02-11T19:05:40.592Z,93024.81
2023-02-11T19:08:13.999Z,93026.78
2023-02-11T19:10:47.224Z,93012.00
2023-02-11T19:13:19.705Z,93027.56
2023-02-11T19:15:52.329Z,93027.16
2023-02-11T19:18:25.633Z,93021.66
2023-02-11T19:20:58.022Z,93031.47
2023-02-11T19:23:30.411Z,93025.41
2023-02-11T19:26:03.918Z,93031.03
2023-02-11T19:28:36.773Z,93022.41
2023-02-11T19:31:09.494Z,93007.66
2023-02-11T19:33:42.856Z,93011.78
2023-02-11T19:36:16.564Z,93003.50
2023-02-11T19:38:48.965Z,93002.50
2023-02-11T19:41:22.472Z,92997.78
2023-02-11T19:43:56.138Z,93007.81
2023-02-11T19:46:30.948Z,93006.81
2023-02-11T19:49:04.868Z,93007.44
2023-02-11T19:51:38.574Z,93001.13
2023-02-11T19:54:11.029Z,92994.63
2023-02-11T19:56:44.108Z,92995.03
2023-02-11T19:59:16.715Z,92996.00
2023-02-11T20:01:49.378Z,92997.78
2023-02-11T20:04:24.397Z,92981.66
2023-02-11T20:06:56.930Z,92989.72
2023-02-11T20:09:30.404Z,92984.22
2023-02-11T20:12:03.119Z,92994.03
2023-02-11T20:14:35.714Z,92995.41
2023-02-11T20:17:08.109Z,92995.41
2023-02-11T20:19:41.398Z,92990.31
2023-02-11T20:22:13.813Z,92981.84
2023-02-11T20:24:46.271Z,92982.84
2023-02-11T20:27:20.119Z,92972.03
2023-02-11T20:29:52.777Z,92981.69
2023-02-11T20:32:25.206Z,92978.69
2023-02-11T20:34:58.714Z,92977.50
2023-02-11T20:37:31.102Z,92955.81
2023-02-11T20:40:03.805Z,92977.84
2023-02-11T20:42:36.222Z,92973.31
2023-02-11T20:45:09.134Z,92966.84
2023-02-11T20:47:41.825Z,92959.50
2023-02-11T20:50:15.134Z,92955.63
2023-02-11T20:52:47.960Z,92963.28
2023-02-11T20:55:20.638Z,92953.91
2023-02-11T20:57:53.159Z,92947.00
2023-02-11T21:00:25.625Z,92949.69
2023-02-11T21:02:57.988Z,92941.84
2023-02-11T21:05:31.195Z,92936.34
2023-02-11T21:08:04.259Z,92938.50
2023-02-11T21:10:36.694Z,92928.91
2023-02-11T21:13:09.142Z,92935.53
2023-02-11T21:15:41.649Z,92937.66
2023-02-11T21:18:14.184Z,92915.84
2023-02-11T21:20:47.603Z,92907.66
2023-02-11T21:23:20.211Z,92908.00
2023-02-11T21:25:53.571Z,92909.44
2023-02-11T21:28:26.383Z,92897.25
2023-02-11T21:30:59.035Z,92905.72
2023-02-11T21:33:32.949Z,92888.81
2023-02-11T21:36:07.548Z,92909.25
2023-02-11T21:38:40.155Z,92908.72
2023-02-11T21:41:12.871Z,92907.78
2023-02-11T21:43:45.736Z,92920.72
2023-02-11T21:46:19.544Z,92925.25
2023-02-11T21:48:52.169Z,92901.81
2023-02-11T21:51:26.444Z,92895.81
2023-02-11T21:54:01.538Z,92894.84
2023-02-11T21:56:34.851Z,92901.56
2023-02-11T21:59:07.198Z,92895.84
2023-02-11T22:01:39.945Z,92884.75
2023-02-11T22:04:12.473Z,92900.28
2023-02-11T22:06:45.670Z,92902.66
2023-02-11T22:09:18.044Z,92902.63
2023-02-11T22:11:50.478Z,92896.78
2023-02-11T22:14:22.896Z,92913.94
2023-02-11T22:16:55.267Z,92917.44
2023-02-11T22:19:27.792Z,92898.34
2023-02-11T22:22:00.879Z,92904.69
2023-02-11T22:24:35.208Z,92915.91
2023-02-11T22:27:07.629Z,92897.59
2023-02-11T22:29:40.020Z,92906.06
2023-02-11T22:32:12.604Z,92912.91
2023-02-11T22:34:45.143Z,92905.03
2023-02-11T22:37:18.195Z,92903.88
2023-02-11T22:39:50.613Z,92913.13
2023-02-11T22:42:22.995Z,92912.28
2023-02-11T22:44:55.358Z,92908.34
2023-02-11T22:47:27.745Z,92921.34
2023-02-11T22:50:00.175Z,92923.06
2023-02-11T22:52:35.271Z,92919.50
2023-02-11T22:55:07.909Z,92920.47
2023-02-11T22:57:40.255Z,92906.75
2023-02-11T23:00:13.980Z,92914.63
2023-02-11T23:02:46.611Z,92914.81
2023-02-11T23:05:19.020Z,92914.22
2023-02-11T23:07:52.152Z,92914.59
2023-02-11T23:10:24.619Z,92917.00
2023-02-11T23:12:57.011Z,92917.00
2023-02-11T23:15:29.451Z,92907.34
2023-02-11T23:18:01.963Z,92909.88
2023-02-11T23:20:35.050Z,92893.03
2023-02-11T23:23:08.353Z,92888.91
2023-02-11T23:25:44.320Z,92884.19
2023-02-11T23:28:16.900Z,92892.41
2023-02-11T23:30:49.286Z,92882.03
2023-02-11T23:33:22.599Z,92887.56
2023-02-11T23:35:55.200Z,92883.06
2023-02-11T23:38:28.514Z,92874.81
2023-02-11T23:41:01.016Z,92882.09
2023-02-11T23:43:33.581Z,92870.31
2023-02-11T23:46:06.257Z,92879.94
2023-02-11T23:48:39.742Z,92877.22
2023-02-11T23:51:12.248Z,92887.00
2023-02-11T23:53:45.955Z,92886.84
2023-02-11T23:56:20.575Z,92866.22
2023-02-11T23:58:54.928Z,92879.94
